sensor_id;sensor_type;location;lat;lon;timestamp;temperature;humidity
10964;DHT22;5534;48.784;9.190;2023-03-11T00:00:21;6.70;99.90
10964;DHT22;5534;48.784;9.190;2023-03-11T00:02:49;6.90;99.90
10964;DHT22;5534;48.784;9.190;2023-03-11T00:05:19;6.90;99.90
10964;DHT22;5534;48.784;9.190;2023-03-11T00:07:45;6.80;99.90
10964;DHT22;5534;48.784;9.190;2023-03-11T00:10:14;6.60;99.90
10964;DHT22;5534;48.784;9.190;2023-03-11T00:12:40;6.70;99.90
10964;DHT22;5534;48.784;9.190;2023-03-11T00:15:06;6.80;99.90
10964;DHT22;5534;48.784;9.190;2023-03-11T00:17:32;6.70;99.90
10964;DHT22;5534;48.784;9.190;2023-03-11T00:19:58;6.60;99.90
10964;DHT22;5534;48.784;9.190;2023-03-11T00:22:24;6.40;99.90
10964;DHT22;5534;48.784;9.190;2023-03-11T00:24:49;6.60;99.90
10964;DHT22;5534;48.784;9.190;2023-03-11T00:27:15;6.60;99.90
10964;DHT22;5534;48.784;9.190;2023-03-11T00:29:41;6.70;99.90
10964;DHT22;5534;48.784;9.190;2023-03-11T00:32:07;6.80;99.90
10964;DHT22;5534;48.784;9.190;2023-03-11T00:34:32;6.90;99.90
10964;DHT22;5534;48.784;9.190;2023-03-11T00:36:59;6.90;99.90
10964;DHT22;5534;48.784;9.190;2023-03-11T00:39:25;6.90;99.90
10964;DHT22;5534;48.784;9.190;2023-03-11T00:41:53;6.90;99.90
10964;DHT22;5534;48.784;9.190;2023-03-11T00:44:21;6.60;99.90
10964;DHT22;5534;48.784;9.190;2023-03-11T00:46:48;6.30;99.90
10964;DHT22;5534;48.784;9.190;2023-03-11T00:49:14;6.50;99.90
10964;DHT22;5534;48.784;9.190;2023-03-11T00:51:40;6.20;99.90
10964;DHT22;5534;48.784;9.190;2023-03-11T00:54:05;6.40;99.90
10964;DHT22;5534;48.784;9.190;2023-03-11T00:56:31;6.60;99.90
10964;DHT22;5534;48.784;9.190;2023-03-11T00:58:57;6.30;99.90
10964;DHT22;5534;48.784;9.190;2023-03-11T01:01:23;6.50;99.90
10964;DHT22;5534;48.784;9.190;2023-03-11T01:03:50;6.60;99.90
10964;DHT22;5534;48.784;9.190;2023-03-11T01:06:17;6.50;99.90
10964;DHT22;5534;48.784;9.190;2023-03-11T01:08:43;6.60;99.90
10964;DHT22;5534;48.784;9.190;2023-03-11T01:11:08;6.40;99.90
10964;DHT22;5534;48.784;9.190;2023-03-11T01:13:35;6.50;99.90
10964;DHT22;5534;48.784;9.190;2023-03-11T01:16:01;6.70;99.90
10964;DHT22;5534;48.784;9.190;2023-03-11T01:18:27;6.60;99.90
10964;DHT22;5534;48.784;9.190;2023-03-11T01:20:53;6.60;99.90
10964;DHT22;5534;48.784;9.190;2023-03-11T01:23:20;6.60;99.90
10964;DHT22;5534;48.784;9.190;2023-03-11T01:25:45;6.60;99.90
10964;DHT22;5534;48.784;9.190;2023-03-11T01:28:11;6.50;99.90
10964;DHT22;5534;48.784;9.190;2023-03-11T01:30:39;6.20;99.90
10964;DHT22;5534;48.784;9.190;2023-03-11T01:33:06;6.40;99.90
10964;DHT22;5534;48.784;9.190;2023-03-11T01:35:33;6.50;99.90
10964;DHT22;5534;48.784;9.190;2023-03-11T01:38:00;6.50;99.90
10964;DHT22;5534;48.784;9.190;2023-03-11T01:42:55;6.60;99.90
10964;DHT22;5534;48.784;9.190;2023-03-11T01:46:10;6.60;99.90
10964;DHT22;5534;48.784;9.190;2023-03-11T01:48:27;6.40;99.90
10964;DHT22;5534;48.784;9.190;2023-03-11T01:50:54;6.00;99.90
10964;DHT22;5534;48.784;9.190;2023-03-11T01:53:21;5.70;99.90
10964;DHT22;5534;48.784;9.190;2023-03-11T01:55:48;6.00;99.90
10964;DHT22;5534;48.784;9.190;2023-03-11T01:58:26;6.00;99.90
10964;DHT22;5534;48.784;9.190;2023-03-11T02:00:53;6.20;99.90
10964;DHT22;5534;48.784;9.190;2023-03-11T02:03:39;6.20;99.90
10964;DHT22;5534;48.784;9.190;2023-03-11T02:06:09;6.10;99.90
10964;DHT22;5534;48.784;9.190;2023-03-11T02:08:35;6.20;99.90
10964;DHT22;5534;48.784;9.190;2023-03-11T02:11:04;6.10;99.90
10964;DHT22;5534;48.784;9.190;2023-03-11T02:13:32;6.20;99.90
10964;DHT22;5534;48.784;9.190;2023-03-11T02:16:01;6.10;99.90
10964;DHT22;5534;48.784;9.190;2023-03-11T02:18:27;6.30;99.90
10964;DHT22;5534;48.784;9.190;2023-03-11T02:29:03;6.20;99.90
10964;DHT22;5534;48.784;9.190;2023-03-11T02:31:31;6.30;99.90
10964;DHT22;5534;48.784;9.190;2023-03-11T02:33:58;5.90;99.90
10964;DHT22;5534;48.784;9.190;2023-03-11T02:36:33;6.00;99.90
10964;DHT22;5534;48.784;9.190;2023-03-11T02:38:59;6.20;99.90
10964;DHT22;5534;48.784;9.190;2023-03-11T02:41:26;6.10;99.90
10964;DHT22;5534;48.784;9.190;2023-03-11T02:43:52;5.50;99.90
10964;DHT22;5534;48.784;9.190;2023-03-11T02:46:19;5.10;99.90
10964;DHT22;5534;48.784;9.190;2023-03-11T02:48:46;5.10;99.90
10964;DHT22;5534;48.784;9.190;2023-03-11T02:51:13;5.50;99.90
10964;DHT22;5534;48.784;9.190;2023-03-11T02:53:50;5.70;99.90
10964;DHT22;5534;48.784;9.190;2023-03-11T02:56:17;5.80;99.90
10964;DHT22;5534;48.784;9.190;2023-03-11T02:58:43;5.80;99.90
10964;DHT22;5534;48.784;9.190;2023-03-11T03:01:09;5.80;99.90
10964;DHT22;5534;48.784;9.190;2023-03-11T03:03:35;5.90;99.90
10964;DHT22;5534;48.784;9.190;2023-03-11T03:06:01;5.90;99.90
10964;DHT22;5534;48.784;9.190;2023-03-11T03:08:28;5.80;99.90
10964;DHT22;5534;48.784;9.190;2023-03-11T03:10:54;5.70;99.90
10964;DHT22;5534;48.784;9.190;2023-03-11T03:13:19;5.70;99.90
10964;DHT22;5534;48.784;9.190;2023-03-11T03:15:45;5.60;99.90
10964;DHT22;5534;48.784;9.190;2023-03-11T03:18:11;5.70;99.90
10964;DHT22;5534;48.784;9.190;2023-03-11T03:20:37;5.80;99.90
10964;DHT22;5534;48.784;9.190;2023-03-11T03:23:02;5.60;99.90
10964;DHT22;5534;48.784;9.190;2023-03-11T03:25:28;5.50;99.90
10964;DHT22;5534;48.784;9.190;2023-03-11T03:27:54;5.50;99.90
10964;DHT22;5534;48.784;9.190;2023-03-11T03:30:20;5.40;99.90
10964;DHT22;5534;48.784;9.190;2023-03-11T03:32:45;5.40;99.90
10964;DHT22;5534;48.784;9.190;2023-03-11T03:35:11;5.50;99.90
10964;DHT22;5534;48.784;9.190;2023-03-11T03:37:37;5.60;99.90
10964;DHT22;5534;48.784;9.190;2023-03-11T03:40:05;5.60;99.90
10964;DHT22;5534;48.784;9.190;2023-03-11T03:42:36;5.60;99.90
10964;DHT22;5534;48.784;9.190;2023-03-11T03:45:02;5.50;99.90
10964;DHT22;5534;48.784;9.190;2023-03-11T03:47:28;5.60;99.90
10964;DHT22;5534;48.784;9.190;2023-03-11T03:49:54;5.50;99.90
10964;DHT22;5534;48.784;9.190;2023-03-11T03:52:20;5.40;99.90
10964;DHT22;5534;48.784;9.190;2023-03-11T03:54:46;5.50;99.90
10964;DHT22;5534;48.784;9.190;2023-03-11T03:57:11;5.50;99.90
10964;DHT22;5534;48.784;9.190;2023-03-11T03:59:38;5.50;99.90
10964;DHT22;5534;48.784;9.190;2023-03-11T04:02:04;5.50;99.90
10964;DHT22;5534;48.784;9.190;2023-03-11T04:04:30;5.60;99.90
10964;DHT22;5534;48.784;9.190;2023-03-11T04:06:56;5.60;99.90
10964;DHT22;5534;48.784;9.190;2023-03-11T04:09:22;5.50;99.90
10964;DHT22;5534;48.784;9.190;2023-03-11T04:11:47;5.60;99.90
10964;DHT22;5534;48.784;9.190;2023-03-11T04:14:13;5.30;99.90
10964;DHT22;5534;48.784;9.190;2023-03-11T04:16:39;5.30;99.90
10964;DHT22;5534;48.784;9.190;2023-03-11T04:19:05;5.30;99.90
10964;DHT22;5534;48.784;9.190;2023-03-11T04:21:31;5.40;99.90
10964;DHT22;5534;48.784;9.190;2023-03-11T04:23:57;5.40;99.90
10964;DHT22;5534;48.784;9.190;2023-03-11T04:26:24;5.40;99.90
10964;DHT22;5534;48.784;9.190;2023-03-11T04:28:50;5.40;99.90
10964;DHT22;5534;48.784;9.190;2023-03-11T04:31:15;5.50;99.90
10964;DHT22;5534;48.784;9.190;2023-03-11T04:33:42;5.40;99.90
10964;DHT22;5534;48.784;9.190;2023-03-11T04:36:08;5.50;99.90
10964;DHT22;5534;48.784;9.190;2023-03-11T04:38:34;5.50;99.90
10964;DHT22;5534;48.784;9.190;2023-03-11T04:41:04;5.40;99.90
10964;DHT22;5534;48.784;9.190;2023-03-11T04:43:32;5.40;99.90
10964;DHT22;5534;48.784;9.190;2023-03-11T04:46:01;5.30;99.90
10964;DHT22;5534;48.784;9.190;2023-03-11T04:48:26;5.40;99.90
10964;DHT22;5534;48.784;9.190;2023-03-11T04:50:52;5.30;99.90
10964;DHT22;5534;48.784;9.190;2023-03-11T04:53:18;5.30;99.90
10964;DHT22;5534;48.784;9.190;2023-03-11T04:55:44;5.30;99.90
10964;DHT22;5534;48.784;9.190;2023-03-11T04:58:11;5.30;99.90
10964;DHT22;5534;48.784;9.190;2023-03-11T05:00:38;5.30;99.90
10964;DHT22;5534;48.784;9.190;2023-03-11T05:03:05;5.30;99.90
10964;DHT22;5534;48.784;9.190;2023-03-11T05:05:34;5.40;99.90
10964;DHT22;5534;48.784;9.190;2023-03-11T05:08:00;5.40;99.90
10964;DHT22;5534;48.784;9.190;2023-03-11T05:10:26;5.40;99.90
10964;DHT22;5534;48.784;9.190;2023-03-11T05:12:52;5.40;99.90
10964;DHT22;5534;48.784;9.190;2023-03-11T05:15:18;5.30;99.90
10964;DHT22;5534;48.784;9.190;2023-03-11T05:17:44;5.30;99.90
10964;DHT22;5534;48.784;9.190;2023-03-11T05:20:11;5.20;99.90
10964;DHT22;5534;48.784;9.190;2023-03-11T05:22:37;5.20;99.90
10964;DHT22;5534;48.784;9.190;2023-03-11T05:25:04;5.20;99.90
10964;DHT22;5534;48.784;9.190;2023-03-11T05:27:30;5.20;99.90
10964;DHT22;5534;48.784;9.190;2023-03-11T05:29:56;5.00;99.90
10964;DHT22;5534;48.784;9.190;2023-03-11T05:32:21;5.00;99.90
10964;DHT22;5534;48.784;9.190;2023-03-11T05:34:50;5.10;99.90
10964;DHT22;5534;48.784;9.190;2023-03-11T05:37:17;5.00;99.90
10964;DHT22;5534;48.784;9.190;2023-03-11T05:39:43;5.10;99.90
10964;DHT22;5534;48.784;9.190;2023-03-11T05:42:09;5.00;99.90
10964;DHT22;5534;48.784;9.190;2023-03-11T05:44:34;5.20;99.90
10964;DHT22;5534;48.784;9.190;2023-03-11T05:47:00;5.00;99.90
10964;DHT22;5534;48.784;9.190;2023-03-11T05:49:26;5.10;99.90
10964;DHT22;5534;48.784;9.190;2023-03-11T05:51:55;5.10;99.90
10964;DHT22;5534;48.784;9.190;2023-03-11T05:54:22;5.10;99.90
10964;DHT22;5534;48.784;9.190;2023-03-11T05:56:48;5.20;99.90
10964;DHT22;5534;48.784;9.190;2023-03-11T05:59:15;5.10;99.90
10964;DHT22;5534;48.784;9.190;2023-03-11T06:01:41;5.10;99.90
10964;DHT22;5534;48.784;9.190;2023-03-11T06:04:08;5.10;99.90
10964;DHT22;5534;48.784;9.190;2023-03-11T06:06:34;5.10;99.90
10964;DHT22;5534;48.784;9.190;2023-03-11T06:09:00;5.10;99.90
10964;DHT22;5534;48.784;9.190;2023-03-11T06:11:26;5.00;99.90
10964;DHT22;5534;48.784;9.190;2023-03-11T06:13:56;5.10;99.90
10964;DHT22;5534;48.784;9.190;2023-03-11T06:16:23;5.00;99.90
10964;DHT22;5534;48.784;9.190;2023-03-11T06:18:50;5.00;99.90
10964;DHT22;5534;48.784;9.190;2023-03-11T06:21:18;5.20;99.90
10964;DHT22;5534;48.784;9.190;2023-03-11T06:23:44;5.10;99.90
10964;DHT22;5534;48.784;9.190;2023-03-11T06:26:13;5.10;99.90
10964;DHT22;5534;48.784;9.190;2023-03-11T06:28:44;5.10;99.90
10964;DHT22;5534;48.784;9.190;2023-03-11T06:31:14;5.00;99.90
10964;DHT22;5534;48.784;9.190;2023-03-11T06:33:41;4.90;99.90
10964;DHT22;5534;48.784;9.190;2023-03-11T06:36:07;5.00;99.90
10964;DHT22;5534;48.784;9.190;2023-03-11T06:38:33;5.10;99.90
10964;DHT22;5534;48.784;9.190;2023-03-11T06:41:00;5.10;99.90
10964;DHT22;5534;48.784;9.190;2023-03-11T06:43:28;5.20;99.90
10964;DHT22;5534;48.784;9.190;2023-03-11T06:45:56;5.20;99.90
10964;DHT22;5534;48.784;9.190;2023-03-11T06:48:22;5.20;99.90
10964;DHT22;5534;48.784;9.190;2023-03-11T06:50:58;5.20;99.90
10964;DHT22;5534;48.784;9.190;2023-03-11T06:53:26;5.20;99.90
10964;DHT22;5534;48.784;9.190;2023-03-11T06:56:03;5.20;99.90
10964;DHT22;5534;48.784;9.190;2023-03-11T06:58:30;5.30;99.90
10964;DHT22;5534;48.784;9.190;2023-03-11T07:01:11;5.30;99.90
10964;DHT22;5534;48.784;9.190;2023-03-11T07:03:37;5.30;99.90
10964;DHT22;5534;48.784;9.190;2023-03-11T07:06:03;5.20;99.90
10964;DHT22;5534;48.784;9.190;2023-03-11T07:08:29;5.30;99.90
10964;DHT22;5534;48.784;9.190;2023-03-11T07:11:07;5.40;99.90
10964;DHT22;5534;48.784;9.190;2023-03-11T07:13:34;5.40;99.90
10964;DHT22;5534;48.784;9.190;2023-03-11T07:18:31;5.50;99.90
10964;DHT22;5534;48.784;9.190;2023-03-11T07:20:58;5.50;99.90
10964;DHT22;5534;48.784;9.190;2023-03-11T07:23:25;5.30;99.90
10964;DHT22;5534;48.784;9.190;2023-03-11T07:25:51;5.20;99.90
10964;DHT22;5534;48.784;9.190;2023-03-11T07:28:17;5.30;99.90
10964;DHT22;5534;48.784;9.190;2023-03-11T07:30:43;5.20;99.90
10964;DHT22;5534;48.784;9.190;2023-03-11T07:33:11;5.30;99.90
10964;DHT22;5534;48.784;9.190;2023-03-11T07:35:37;5.30;99.90
10964;DHT22;5534;48.784;9.190;2023-03-11T07:38:03;5.30;99.90
10964;DHT22;5534;48.784;9.190;2023-03-11T07:40:28;5.40;99.90
10964;DHT22;5534;48.784;9.190;2023-03-11T07:42:54;5.20;99.90
10964;DHT22;5534;48.784;9.190;2023-03-11T07:45:20;5.30;99.90
10964;DHT22;5534;48.784;9.190;2023-03-11T07:47:46;5.30;99.90
10964;DHT22;5534;48.784;9.190;2023-03-11T07:50:11;5.40;99.90
10964;DHT22;5534;48.784;9.190;2023-03-11T07:52:40;4.90;99.90
10964;DHT22;5534;48.784;9.190;2023-03-11T07:55:06;5.10;99.90
10964;DHT22;5534;48.784;9.190;2023-03-11T07:57:32;5.20;99.90
10964;DHT22;5534;48.784;9.190;2023-03-11T07:59:57;5.00;99.90
10964;DHT22;5534;48.784;9.190;2023-03-11T08:02:23;4.90;99.90
10964;DHT22;5534;48.784;9.190;2023-03-11T08:04:49;5.20;99.90
10964;DHT22;5534;48.784;9.190;2023-03-11T08:07:14;5.40;99.90
10964;DHT22;5534;48.784;9.190;2023-03-11T08:09:40;5.20;99.90
10964;DHT22;5534;48.784;9.190;2023-03-11T08:12:06;5.40;99.90
10964;DHT22;5534;48.784;9.190;2023-03-11T08:14:32;5.40;99.90
10964;DHT22;5534;48.784;9.190;2023-03-11T08:16:58;5.50;99.90
10964;DHT22;5534;48.784;9.190;2023-03-11T08:19:24;5.40;99.90
10964;DHT22;5534;48.784;9.190;2023-03-11T08:21:49;5.60;99.90
10964;DHT22;5534;48.784;9.190;2023-03-11T08:24:15;5.60;99.90
10964;DHT22;5534;48.784;9.190;2023-03-11T08:26:41;5.60;99.90
10964;DHT22;5534;48.784;9.190;2023-03-11T08:29:07;5.50;99.90
10964;DHT22;5534;48.784;9.190;2023-03-11T08:31:33;5.30;99.90
10964;DHT22;5534;48.784;9.190;2023-03-11T08:34:02;5.50;99.90
10964;DHT22;5534;48.784;9.190;2023-03-11T08:36:28;5.60;99.90
10964;DHT22;5534;48.784;9.190;2023-03-11T08:38:57;5.70;99.90
10964;DHT22;5534;48.784;9.190;2023-03-11T08:41:23;5.80;99.90
10964;DHT22;5534;48.784;9.190;2023-03-11T08:43:55;5.80;99.90
10964;DHT22;5534;48.784;9.190;2023-03-11T08:46:28;5.80;99.90
10964;DHT22;5534;48.784;9.190;2023-03-11T08:48:54;5.90;99.90
10964;DHT22;5534;48.784;9.190;2023-03-11T08:51:21;5.80;99.90
10964;DHT22;5534;48.784;9.190;2023-03-11T08:53:56;5.70;99.90
10964;DHT22;5534;48.784;9.190;2023-03-11T08:56:22;5.60;99.90
10964;DHT22;5534;48.784;9.190;2023-03-11T08:58:48;5.70;99.90
10964;DHT22;5534;48.784;9.190;2023-03-11T09:01:21;5.80;99.90
10964;DHT22;5534;48.784;9.190;2023-03-11T09:03:48;5.90;99.90
10964;DHT22;5534;48.784;9.190;2023-03-11T09:06:15;5.90;99.90
10964;DHT22;5534;48.784;9.190;2023-03-11T09:08:42;6.10;99.90
10964;DHT22;5534;48.784;9.190;2023-03-11T09:11:09;6.20;99.90
10964;DHT22;5534;48.784;9.190;2023-03-11T09:13:35;6.30;99.90
10964;DHT22;5534;48.784;9.190;2023-03-11T09:16:01;6.30;99.90
10964;DHT22;5534;48.784;9.190;2023-03-11T09:18:30;6.50;99.90
10964;DHT22;5534;48.784;9.190;2023-03-11T09:20:55;6.60;99.90
10964;DHT22;5534;48.784;9.190;2023-03-11T09:23:23;6.60;99.90
10964;DHT22;5534;48.784;9.190;2023-03-11T09:25:49;6.50;99.90
10964;DHT22;5534;48.784;9.190;2023-03-11T09:28:14;6.30;99.90
10964;DHT22;5534;48.784;9.190;2023-03-11T09:30:40;6.10;99.90
10964;DHT22;5534;48.784;9.190;2023-03-11T09:33:07;6.00;99.90
10964;DHT22;5534;48.784;9.190;2023-03-11T09:35:33;6.00;99.90
10964;DHT22;5534;48.784;9.190;2023-03-11T09:37:59;6.20;99.90
10964;DHT22;5534;48.784;9.190;2023-03-11T09:40:27;6.50;99.90
10964;DHT22;5534;48.784;9.190;2023-03-11T09:43:09;6.80;99.90
10964;DHT22;5534;48.784;9.190;2023-03-11T09:45:59;6.90;99.90
10964;DHT22;5534;48.784;9.190;2023-03-11T09:51:02;6.90;99.90
10964;DHT22;5534;48.784;9.190;2023-03-11T09:56:08;7.00;99.90
10964;DHT22;5534;48.784;9.190;2023-03-11T10:01:33;7.20;99.90
10964;DHT22;5534;48.784;9.190;2023-03-11T10:04:09;7.40;99.90
10964;DHT22;5534;48.784;9.190;2023-03-11T10:06:39;7.40;99.90
10964;DHT22;5534;48.784;9.190;2023-03-11T10:15:16;7.40;99.90
10964;DHT22;5534;48.784;9.190;2023-03-11T10:25:40;6.90;99.90
10964;DHT22;5534;48.784;9.190;2023-03-11T10:28:13;6.90;99.90
10964;DHT22;5534;48.784;9.190;2023-03-11T10:30:46;7.20;99.90
10964;DHT22;5534;48.784;9.190;2023-03-11T10:33:32;7.60;99.90
10964;DHT22;5534;48.784;9.190;2023-03-11T10:36:05;8.10;99.90
10964;DHT22;5534;48.784;9.190;2023-03-11T10:38:44;8.20;99.90
10964;DHT22;5534;48.784;9.190;2023-03-11T10:43:59;9.00;98.50
10964;DHT22;5534;48.784;9.190;2023-03-11T10:46:27;9.10;97.60
10964;DHT22;5534;48.784;9.190;2023-03-11T10:48:54;9.30;97.40
10964;DHT22;5534;48.784;9.190;2023-03-11T10:51:24;9.50;97.70
10964;DHT22;5534;48.784;9.190;2023-03-11T10:53:59;9.60;97.20
10964;DHT22;5534;48.784;9.190;2023-03-11T10:56:35;9.60;97.40
10964;DHT22;5534;48.784;9.190;2023-03-11T10:59:03;9.30;95.60
10964;DHT22;5534;48.784;9.190;2023-03-11T11:01:29;9.30;96.30
10964;DHT22;5534;48.784;9.190;2023-03-11T11:03:57;9.20;96.30
10964;DHT22;5534;48.784;9.190;2023-03-11T11:06:29;9.00;96.50
10964;DHT22;5534;48.784;9.190;2023-03-11T11:14:25;9.00;96.70
10964;DHT22;5534;48.784;9.190;2023-03-11T11:16:51;9.00;95.50
10964;DHT22;5534;48.784;9.190;2023-03-11T11:19:17;8.40;95.40
10964;DHT22;5534;48.784;9.190;2023-03-11T11:21:48;8.60;96.90
10964;DHT22;5534;48.784;9.190;2023-03-11T11:24:26;8.90;97.20
10964;DHT22;5534;48.784;9.190;2023-03-11T11:27:24;9.20;95.60
10964;DHT22;5534;48.784;9.190;2023-03-11T11:32:39;8.90;95.20
10964;DHT22;5534;48.784;9.190;2023-03-11T11:35:15;8.40;94.30
10964;DHT22;5534;48.784;9.190;2023-03-11T11:37:47;8.80;96.20
10964;DHT22;5534;48.784;9.190;2023-03-11T11:40:29;9.00;96.20
10964;DHT22;5534;48.784;9.190;2023-03-11T11:45:55;9.00;95.00
10964;DHT22;5534;48.784;9.190;2023-03-11T11:48:59;8.90;96.60
10964;DHT22;5534;48.784;9.190;2023-03-11T11:51:27;9.00;96.70
10964;DHT22;5534;48.784;9.190;2023-03-11T11:53:57;9.00;95.60
10964;DHT22;5534;48.784;9.190;2023-03-11T11:56:25;9.10;97.20
10964;DHT22;5534;48.784;9.190;2023-03-11T11:58:51;9.10;96.90
10964;DHT22;5534;48.784;9.190;2023-03-11T12:01:42;9.10;96.40
10964;DHT22;5534;48.784;9.190;2023-03-11T12:04:30;9.00;95.50
10964;DHT22;5534;48.784;9.190;2023-03-11T12:10:32;8.50;97.20
10964;DHT22;5534;48.784;9.190;2023-03-11T12:13:08;8.60;97.60
10964;DHT22;5534;48.784;9.190;2023-03-11T12:15:41;8.70;96.80
10964;DHT22;5534;48.784;9.190;2023-03-11T12:18:18;8.70;97.80
10964;DHT22;5534;48.784;9.190;2023-03-11T12:20:50;8.70;96.30
10964;DHT22;5534;48.784;9.190;2023-03-11T12:24:00;8.60;96.00
10964;DHT22;5534;48.784;9.190;2023-03-11T12:26:33;8.30;96.90
10964;DHT22;5534;48.784;9.190;2023-03-11T12:29:49;8.40;96.90
10964;DHT22;5534;48.784;9.190;2023-03-11T12:31:56;8.40;96.90
10964;DHT22;5534;48.784;9.190;2023-03-11T12:34:24;8.40;97.20
10964;DHT22;5534;48.784;9.190;2023-03-11T12:36:51;8.50;97.60
10964;DHT22;5534;48.784;9.190;2023-03-11T12:39:27;8.60;97.00
10964;DHT22;5534;48.784;9.190;2023-03-11T12:44:39;8.40;95.00
10964;DHT22;5534;48.784;9.190;2023-03-11T12:49:45;8.20;96.10
10964;DHT22;5534;48.784;9.190;2023-03-11T12:54:39;8.30;96.60
10964;DHT22;5534;48.784;9.190;2023-03-11T13:05:36;8.60;95.20
10964;DHT22;5534;48.784;9.190;2023-03-11T13:08:20;8.50;94.90
10964;DHT22;5534;48.784;9.190;2023-03-11T13:10:48;8.60;95.20
10964;DHT22;5534;48.784;9.190;2023-03-11T13:16:35;8.90;95.50
10964;DHT22;5534;48.784;9.190;2023-03-11T13:21:57;9.20;94.70
10964;DHT22;5534;48.784;9.190;2023-03-11T13:35:15;9.10;94.10
10964;DHT22;5534;48.784;9.190;2023-03-11T13:40:57;9.30;94.80
10964;DHT22;5534;48.784;9.190;2023-03-11T13:43:25;9.50;93.60
10964;DHT22;5534;48.784;9.190;2023-03-11T13:46:03;9.60;93.30
10964;DHT22;5534;48.784;9.190;2023-03-11T13:48:40;9.40;93.50
10964;DHT22;5534;48.784;9.190;2023-03-11T13:51:39;9.10;93.60
10964;DHT22;5534;48.784;9.190;2023-03-11T13:57:00;8.90;94.80
10964;DHT22;5534;48.784;9.190;2023-03-11T13:59:27;9.20;93.60
10964;DHT22;5534;48.784;9.190;2023-03-11T14:01:58;9.40;93.60
10964;DHT22;5534;48.784;9.190;2023-03-11T14:04:27;9.30;93.10
10964;DHT22;5534;48.784;9.190;2023-03-11T14:06:53;9.40;93.30
10964;DHT22;5534;48.784;9.190;2023-03-11T14:09:23;9.30;93.90
10964;DHT22;5534;48.784;9.190;2023-03-11T14:11:52;9.00;93.10
10964;DHT22;5534;48.784;9.190;2023-03-11T14:14:28;8.60;93.70
10964;DHT22;5534;48.784;9.190;2023-03-11T14:16:55;8.70;93.90
10964;DHT22;5534;48.784;9.190;2023-03-11T14:19:21;8.30;94.60
10964;DHT22;5534;48.784;9.190;2023-03-11T14:21:49;8.70;95.20
10964;DHT22;5534;48.784;9.190;2023-03-11T14:24:34;9.10;95.80
10964;DHT22;5534;48.784;9.190;2023-03-11T14:27:03;9.30;95.80
10964;DHT22;5534;48.784;9.190;2023-03-11T14:29:36;9.50;95.00
10964;DHT22;5534;48.784;9.190;2023-03-11T14:34:50;9.30;94.80
10964;DHT22;5534;48.784;9.190;2023-03-11T14:37:36;9.20;94.80
10964;DHT22;5534;48.784;9.190;2023-03-11T14:40:18;9.10;95.70
10964;DHT22;5534;48.784;9.190;2023-03-11T14:42:46;9.00;95.50
10964;DHT22;5534;48.784;9.190;2023-03-11T14:45:17;8.90;95.30
10964;DHT22;5534;48.784;9.190;2023-03-11T14:47:54;8.80;95.70
10964;DHT22;5534;48.784;9.190;2023-03-11T14:50:32;8.80;96.20
10964;DHT22;5534;48.784;9.190;2023-03-11T14:53:04;8.90;96.10
10964;DHT22;5534;48.784;9.190;2023-03-11T14:58:31;9.10;95.70
10964;DHT22;5534;48.784;9.190;2023-03-11T15:03:37;8.90;95.80
10964;DHT22;5534;48.784;9.190;2023-03-11T15:09:04;9.00;95.90
10964;DHT22;5534;48.784;9.190;2023-03-11T15:11:28;9.10;95.90
10964;DHT22;5534;48.784;9.190;2023-03-11T15:14:07;9.10;95.70
10964;DHT22;5534;48.784;9.190;2023-03-11T15:16:35;8.90;95.40
10964;DHT22;5534;48.784;9.190;2023-03-11T15:21:53;8.80;96.40
10964;DHT22;5534;48.784;9.190;2023-03-11T15:24:28;8.80;96.20
10964;DHT22;5534;48.784;9.190;2023-03-11T15:26:56;8.70;96.30
10964;DHT22;5534;48.784;9.190;2023-03-11T15:29:24;8.70;97.00
10964;DHT22;5534;48.784;9.190;2023-03-11T15:31:51;8.80;96.80
10964;DHT22;5534;48.784;9.190;2023-03-11T15:34:20;8.80;96.30
10964;DHT22;5534;48.784;9.190;2023-03-11T15:39:20;8.70;96.70
10964;DHT22;5534;48.784;9.190;2023-03-11T15:42:00;8.70;97.00
10964;DHT22;5534;48.784;9.190;2023-03-11T15:47:15;8.60;96.50
10964;DHT22;5534;48.784;9.190;2023-03-11T15:49:41;8.70;96.90
10964;DHT22;5534;48.784;9.190;2023-03-11T15:52:08;8.70;96.80
10964;DHT22;5534;48.784;9.190;2023-03-11T15:54:35;8.60;97.10
10964;DHT22;5534;48.784;9.190;2023-03-11T15:57:04;8.50;96.90
10964;DHT22;5534;48.784;9.190;2023-03-11T15:59:31;8.50;97.50
10964;DHT22;5534;48.784;9.190;2023-03-11T16:01:57;8.60;96.70
10964;DHT22;5534;48.784;9.190;2023-03-11T16:04:24;8.50;97.00
10964;DHT22;5534;48.784;9.190;2023-03-11T16:06:50;8.40;97.20
10964;DHT22;5534;48.784;9.190;2023-03-11T16:09:16;8.30;97.00
10964;DHT22;5534;48.784;9.190;2023-03-11T16:11:42;8.30;97.50
10964;DHT22;5534;48.784;9.190;2023-03-11T16:14:17;8.30;97.30
10964;DHT22;5534;48.784;9.190;2023-03-11T16:16:43;8.30;97.10
10964;DHT22;5534;48.784;9.190;2023-03-11T16:19:10;8.40;97.50
10964;DHT22;5534;48.784;9.190;2023-03-11T16:21:43;8.40;97.60
10964;DHT22;5534;48.784;9.190;2023-03-11T16:24:17;8.40;97.40
10964;DHT22;5534;48.784;9.190;2023-03-11T16:26:43;8.50;97.10
10964;DHT22;5534;48.784;9.190;2023-03-11T16:29:09;8.30;97.50
10964;DHT22;5534;48.784;9.190;2023-03-11T16:31:35;8.30;97.20
10964;DHT22;5534;48.784;9.190;2023-03-11T16:34:01;8.30;97.20
10964;DHT22;5534;48.784;9.190;2023-03-11T16:36:27;8.30;97.70
10964;DHT22;5534;48.784;9.190;2023-03-11T16:38:52;8.30;97.40
10964;DHT22;5534;48.784;9.190;2023-03-11T16:41:18;8.20;98.20
10964;DHT22;5534;48.784;9.190;2023-03-11T16:43:44;8.30;97.90
10964;DHT22;5534;48.784;9.190;2023-03-11T16:46:10;8.20;97.60
10964;DHT22;5534;48.784;9.190;2023-03-11T16:48:36;8.10;97.70
10964;DHT22;5534;48.784;9.190;2023-03-11T16:51:02;8.00;98.10
10964;DHT22;5534;48.784;9.190;2023-03-11T16:53:28;8.00;98.60
10964;DHT22;5534;48.784;9.190;2023-03-11T16:55:53;8.10;98.50
10964;DHT22;5534;48.784;9.190;2023-03-11T16:58:19;8.10;97.90
10964;DHT22;5534;48.784;9.190;2023-03-11T17:00:46;8.10;97.90
10964;DHT22;5534;48.784;9.190;2023-03-11T17:03:12;8.10;97.70
10964;DHT22;5534;48.784;9.190;2023-03-11T17:05:38;8.10;97.90
10964;DHT22;5534;48.784;9.190;2023-03-11T17:08:05;8.10;97.40
10964;DHT22;5534;48.784;9.190;2023-03-11T17:10:36;8.00;97.90
10964;DHT22;5534;48.784;9.190;2023-03-11T17:13:06;8.00;97.70
10964;DHT22;5534;48.784;9.190;2023-03-11T17:15:32;8.00;98.10
10964;DHT22;5534;48.784;9.190;2023-03-11T17:18:00;8.10;97.90
10964;DHT22;5534;48.784;9.190;2023-03-11T17:20:26;8.00;98.60
10964;DHT22;5534;48.784;9.190;2023-03-11T17:22:52;8.00;98.50
10964;DHT22;5534;48.784;9.190;2023-03-11T17:25:18;7.90;98.30
10964;DHT22;5534;48.784;9.190;2023-03-11T17:27:44;8.00;98.30
10964;DHT22;5534;48.784;9.190;2023-03-11T17:30:11;7.90;98.30
10964;DHT22;5534;48.784;9.190;2023-03-11T17:32:37;7.80;98.70
10964;DHT22;5534;48.784;9.190;2023-03-11T17:35:03;7.80;98.70
10964;DHT22;5534;48.784;9.190;2023-03-11T17:37:30;7.80;98.70
10964;DHT22;5534;48.784;9.190;2023-03-11T17:39:55;7.80;98.80
10964;DHT22;5534;48.784;9.190;2023-03-11T17:42:22;7.80;98.50
10964;DHT22;5534;48.784;9.190;2023-03-11T17:44:47;7.70;98.40
10964;DHT22;5534;48.784;9.190;2023-03-11T17:47:13;7.60;98.80
10964;DHT22;5534;48.784;9.190;2023-03-11T17:49:39;7.60;98.90
10964;DHT22;5534;48.784;9.190;2023-03-11T17:52:05;7.60;98.80
10964;DHT22;5534;48.784;9.190;2023-03-11T17:54:30;7.70;98.70
10964;DHT22;5534;48.784;9.190;2023-03-11T17:56:56;7.60;98.90
10964;DHT22;5534;48.784;9.190;2023-03-11T17:59:22;7.60;98.80
10964;DHT22;5534;48.784;9.190;2023-03-11T18:01:48;7.50;98.90